Time;durP1;ratioP1;P1;durP2;ratioP2;P2;SDS_P1;SDS_P2;PMS_P1;PMS_P2;Temp;Humidity;BMP_temperature;BMP_pressure;BME280_temperature;BME280_humidity;BME280_pressure;Samples;Min_cycle;Max_cycle;Signal;HPM_P1;HPM_P2
2022/08/30 00:02:30;;;;;;;9.40;3.20;;;;;;;;;;4950283;28;20269;-77
2022/08/30 00:05:00;;;;;;;9.10;2.80;;;;;;;;;;4951306;28;21078;-78
2022/08/30 00:07:27;;;;;;;11.90;2.87;;;;;;;;;;4949759;28;20639;-78
2022/08/30 00:09:54;;;;;;;8.17;3.47;;;;;;;;;;4949472;28;20249;-76
2022/08/30 00:12:22;;;;;;;7.27;2.70;;;;;;;;;;4945749;28;20242;-77
2022/08/30 00:14:50;;;;;;;12.07;2.70;;;;;;;;;;4945593;28;20229;-76
2022/08/30 00:17:18;;;;;;;7.00;2.50;;;;;;;;;;4948190;28;20237;-77
2022/08/30 00:19:45;;;;;;;6.40;2.60;;;;;;;;;;4949023;28;20213;-77
2022/08/30 00:22:12;;;;;;;8.77;2.57;;;;;;;;;;4945171;28;20602;-77
2022/08/30 00:24:39;;;;;;;6.87;2.50;;;;;;;;;;4949527;28;20250;-77
2022/08/30 00:27:06;;;;;;;5.40;2.70;;;;;;;;;;4948765;28;20305;-76
2022/08/30 00:29:34;;;;;;;8.07;2.60;;;;;;;;;;4948859;28;20210;-77
2022/08/30 00:32:02;;;;;;;8.27;3.17;;;;;;;;;;4947785;28;20208;-78
2022/08/30 00:34:31;;;;;;;6.83;3.03;;;;;;;;;;4948970;28;20219;-78
2022/08/30 00:36:59;;;;;;;6.27;2.77;;;;;;;;;;4947879;28;20593;-78
2022/08/30 00:39:26;;;;;;;6.00;2.87;;;;;;;;;;4948859;28;20214;-77
2022/08/30 00:41:53;;;;;;;8.27;2.73;;;;;;;;;;4952069;28;20212;-80
2022/08/30 00:44:20;;;;;;;7.83;2.63;;;;;;;;;;4951397;28;20198;-79
2022/08/30 00:46:47;;;;;;;8.77;2.50;;;;;;;;;;4946773;28;20234;-79
2022/08/30 00:49:16;;;;;;;9.40;2.57;;;;;;;;;;4946575;28;20590;-79
2022/08/30 00:51:43;;;;;;;8.23;2.70;;;;;;;;;;4945732;29;20320;-80
2022/08/30 00:54:11;;;;;;;7.17;2.97;;;;;;;;;;4951802;28;20218;-79
2022/08/30 00:56:38;;;;;;;11.33;2.90;;;;;;;;;;4948804;28;20309;-79
2022/08/30 00:59:06;;;;;;;6.17;2.70;;;;;;;;;;4948752;28;20209;-79
2022/08/30 01:01:34;;;;;;;6.33;2.60;;;;;;;;;;4951213;28;20234;-79
2022/08/30 01:04:02;;;;;;;7.57;2.90;;;;;;;;;;4954096;28;20658;-79
2022/08/30 01:06:31;;;;;;;6.73;2.63;;;;;;;;;;4950198;28;20229;-78
2022/08/30 01:08:59;;;;;;;5.70;2.70;;;;;;;;;;4954360;28;20209;-79
2022/08/30 01:11:27;;;;;;;5.93;2.63;;;;;;;;;;4949520;28;20225;-78
2022/08/30 01:13:54;;;;;;;10.40;3.00;;;;;;;;;;4954625;28;20245;-79
2022/08/30 01:16:24;;;;;;;9.73;2.70;;;;;;;;;;4956217;28;20233;-78
2022/08/30 01:18:51;;;;;;;8.93;2.47;;;;;;;;;;4952555;28;20221;-77
2022/08/30 01:21:22;;;;;;;4.77;2.33;;;;;;;;;;4949517;28;20207;-78
2022/08/30 01:23:52;;;;;;;4.43;2.40;;;;;;;;;;4952640;28;20204;-78
2022/08/30 01:26:19;;;;;;;9.93;2.93;;;;;;;;;;4950695;28;20250;-78
2022/08/30 01:28:48;;;;;;;6.10;2.50;;;;;;;;;;4952899;28;20209;-77
2022/08/30 01:31:15;;;;;;;10.63;3.03;;;;;;;;;;4952529;28;20202;-78
2022/08/30 01:33:42;;;;;;;8.10;3.37;;;;;;;;;;4949813;28;20238;-78
2022/08/30 01:36:13;;;;;;;6.23;2.70;;;;;;;;;;4947896;28;20224;-77
2022/08/30 01:38:41;;;;;;;5.97;2.83;;;;;;;;;;4952716;28;20210;-78
2022/08/30 01:41:14;;;;;;;6.27;2.87;;;;;;;;;;4949083;28;20298;-78
2022/08/30 01:43:41;;;;;;;4.27;2.37;;;;;;;;;;4951227;28;20213;-77
2022/08/30 01:46:09;;;;;;;5.70;2.87;;;;;;;;;;4949970;28;20320;-78
2022/08/30 01:48:37;;;;;;;8.10;2.80;;;;;;;;;;4952890;28;20289;-79
2022/08/30 01:51:04;;;;;;;6.17;3.07;;;;;;;;;;4960357;28;20607;-78
2022/08/30 01:53:31;;;;;;;6.97;2.80;;;;;;;;;;4950787;28;20784;-79
2022/08/30 01:55:59;;;;;;;5.40;2.67;;;;;;;;;;4958248;28;20341;-79
2022/08/30 01:58:28;;;;;;;8.90;2.83;;;;;;;;;;4953998;28;20292;-78
2022/08/30 02:00:55;;;;;;;8.30;2.80;;;;;;;;;;4954433;28;20210;-79
2022/08/30 02:03:23;;;;;;;5.00;2.50;;;;;;;;;;4954767;28;20225;-78
2022/08/30 02:05:50;;;;;;;7.43;3.07;;;;;;;;;;4957832;28;20293;-78
2022/08/30 02:08:17;;;;;;;7.43;2.67;;;;;;;;;;4956711;28;20294;-78
2022/08/30 02:10:45;;;;;;;7.80;2.77;;;;;;;;;;4954683;28;20205;-78
2022/08/30 02:13:12;;;;;;;6.57;2.90;;;;;;;;;;4955646;28;20233;-79
2022/08/30 02:15:40;;;;;;;7.17;3.30;;;;;;;;;;4956269;28;20274;-78
2022/08/30 02:18:09;;;;;;;6.80;2.73;;;;;;;;;;4958188;28;20703;-79
2022/08/30 02:20:38;;;;;;;8.60;3.00;;;;;;;;;;4951090;28;20211;-78
2022/08/30 02:23:05;;;;;;;8.30;3.27;;;;;;;;;;4954234;28;20206;-78
2022/08/30 02:25:32;;;;;;;10.10;3.10;;;;;;;;;;4957752;28;20293;-78
2022/08/30 02:27:59;;;;;;;7.23;2.77;;;;;;;;;;4955236;28;20289;-79
2022/08/30 02:30:26;;;;;;;5.93;2.63;;;;;;;;;;4954008;28;20233;-79
2022/08/30 02:32:55;;;;;;;5.90;2.73;;;;;;;;;;4956931;28;20210;-79
2022/08/30 02:35:22;;;;;;;6.33;3.10;;;;;;;;;;4951659;28;20317;-79
2022/08/30 02:37:49;;;;;;;6.07;2.93;;;;;;;;;;4954877;28;20222;-78
2022/08/30 02:40:17;;;;;;;10.33;2.60;;;;;;;;;;4952492;28;20258;-78
2022/08/30 02:42:44;;;;;;;8.07;2.57;;;;;;;;;;4956999;28;20203;-78
2022/08/30 02:45:11;;;;;;;6.27;2.63;;;;;;;;;;4955407;28;20202;-78
2022/08/30 02:47:38;;;;;;;7.43;2.93;;;;;;;;;;4954136;28;20243;-77
2022/08/30 02:50:08;;;;;;;8.00;2.67;;;;;;;;;;4956669;28;20214;-78
2022/08/30 02:52:36;;;;;;;7.00;3.00;;;;;;;;;;4955143;28;20217;-79
2022/08/30 02:55:03;;;;;;;5.43;2.80;;;;;;;;;;4953825;28;20218;-79
2022/08/30 02:57:30;;;;;;;7.10;2.57;;;;;;;;;;4954790;28;20245;-78
2022/08/30 02:59:58;;;;;;;6.17;2.60;;;;;;;;;;4954749;28;20879;-77
2022/08/30 03:02:25;;;;;;;9.37;3.27;;;;;;;;;;4950955;28;20203;-77
2022/08/30 03:04:52;;;;;;;8.63;2.63;;;;;;;;;;4952206;28;20720;-78
2022/08/30 03:07:21;;;;;;;4.73;2.57;;;;;;;;;;4953088;28;20230;-78
2022/08/30 03:09:48;;;;;;;6.73;2.77;;;;;;;;;;4947480;28;20581;-77
2022/08/30 03:12:15;;;;;;;6.63;2.70;;;;;;;;;;4954418;28;20210;-77
2022/08/30 03:14:43;;;;;;;7.27;2.60;;;;;;;;;;4949325;28;20222;-77
2022/08/30 03:17:11;;;;;;;6.60;2.90;;;;;;;;;;4952562;28;20294;-77
2022/08/30 03:19:38;;;;;;;6.80;2.57;;;;;;;;;;4956199;28;20224;-79
2022/08/30 03:22:06;;;;;;;7.77;2.57;;;;;;;;;;4951114;28;20297;-79
2022/08/30 03:24:34;;;;;;;5.00;2.90;;;;;;;;;;4950686;28;20687;-77
2022/08/30 03:27:02;;;;;;;7.73;2.47;;;;;;;;;;4957294;28;20261;-78
2022/08/30 03:29:29;;;;;;;7.77;2.50;;;;;;;;;;4953384;28;20628;-78
2022/08/30 03:31:56;;;;;;;4.23;2.50;;;;;;;;;;4956889;28;20201;-78
2022/08/30 03:34:24;;;;;;;11.17;2.63;;;;;;;;;;4953330;28;20270;-78
2022/08/30 03:36:51;;;;;;;5.77;2.60;;;;;;;;;;4956598;28;20308;-77
2022/08/30 03:39:19;;;;;;;10.37;3.30;;;;;;;;;;4949188;28;20203;-78
2022/08/30 03:41:47;;;;;;;9.63;2.77;;;;;;;;;;4952844;28;20747;-78
2022/08/30 03:44:14;;;;;;;11.30;3.30;;;;;;;;;;4950570;28;20657;-78
2022/08/30 03:46:41;;;;;;;8.43;2.67;;;;;;;;;;4949923;28;20610;-78
2022/08/30 03:49:09;;;;;;;6.10;2.63;;;;;;;;;;4951343;28;20253;-78
2022/08/30 03:51:36;;;;;;;8.53;3.20;;;;;;;;;;4946452;28;20202;-77
2022/08/30 03:54:03;;;;;;;8.00;2.73;;;;;;;;;;4951089;28;20241;-78
2022/08/30 03:56:30;;;;;;;8.07;2.50;;;;;;;;;;4948635;28;20355;-78
2022/08/30 03:58:59;;;;;;;8.13;2.70;;;;;;;;;;4953468;28;20202;-77
2022/08/30 04:01:26;;;;;;;7.47;2.70;;;;;;;;;;4947828;28;20209;-77
2022/08/30 04:03:55;;;;;;;8.60;3.03;;;;;;;;;;4954145;28;20340;-78
2022/08/30 04:06:22;;;;;;;7.17;2.57;;;;;;;;;;4950798;28;20226;-77
2022/08/30 04:08:49;;;;;;;8.87;3.27;;;;;;;;;;4949101;28;20274;-78
2022/08/30 04:11:17;;;;;;;5.60;3.17;;;;;;;;;;4952285;28;20301;-77
2022/08/30 04:13:44;;;;;;;6.17;2.90;;;;;;;;;;4952387;28;20224;-78
2022/08/30 04:16:12;;;;;;;5.00;2.77;;;;;;;;;;4956459;28;20290;-78
2022/08/30 04:18:39;;;;;;;7.90;3.23;;;;;;;;;;4948530;28;20206;-78
2022/08/30 04:21:07;;;;;;;5.73;2.63;;;;;;;;;;4948552;28;20206;-77
2022/08/30 04:23:34;;;;;;;11.13;3.10;;;;;;;;;;4950226;28;20233;-77
2022/08/30 04:26:01;;;;;;;7.77;2.73;;;;;;;;;;4950549;28;20325;-78
2022/08/30 04:28:29;;;;;;;4.63;2.87;;;;;;;;;;4947149;28;20206;-77
2022/08/30 04:30:56;;;;;;;8.80;3.10;;;;;;;;;;4949809;28;20206;-78
2022/08/30 04:33:24;;;;;;;7.27;2.97;;;;;;;;;;4945845;28;20210;-77
2022/08/30 04:35:51;;;;;;;6.03;2.93;;;;;;;;;;4949116;28;20823;-77
2022/08/30 04:38:19;;;;;;;6.10;2.60;;;;;;;;;;4948315;28;20213;-77
2022/08/30 04:40:48;;;;;;;6.43;2.70;;;;;;;;;;4947924;28;20302;-78
2022/08/30 04:43:15;;;;;;;9.50;2.60;;;;;;;;;;4946932;28;20198;-77
2022/08/30 04:45:42;;;;;;;7.63;3.00;;;;;;;;;;4946523;28;20341;-78
2022/08/30 04:48:10;;;;;;;13.70;2.80;;;;;;;;;;4953497;28;20219;-78
2022/08/30 04:50:38;;;;;;;6.73;2.70;;;;;;;;;;4950304;28;20213;-78
2022/08/30 04:53:05;;;;;;;8.17;3.00;;;;;;;;;;4949891;28;20206;-78
2022/08/30 04:55:33;;;;;;;13.33;3.30;;;;;;;;;;4948099;28;20237;-78
2022/08/30 04:58:00;;;;;;;15.73;3.17;;;;;;;;;;4951152;28;20202;-77
2022/08/30 05:00:28;;;;;;;12.87;2.90;;;;;;;;;;4948591;28;20225;-77
2022/08/30 05:02:55;;;;;;;15.87;3.60;;;;;;;;;;4947256;28;21284;-77
2022/08/30 05:05:40;;;;;;;11.37;2.77;;;;;;;;;;4947746;28;20297;-77
2022/08/30 05:08:10;;;;;;;14.43;2.93;;;;;;;;;;4949459;28;20207;-78
2022/08/30 05:10:39;;;;;;;17.07;3.50;;;;;;;;;;4954621;28;20301;-77
2022/08/30 05:13:06;;;;;;;7.77;2.90;;;;;;;;;;4953353;28;20673;-78
2022/08/30 05:15:33;;;;;;;14.67;2.90;;;;;;;;;;4945543;28;20318;-78
2022/08/30 05:18:01;;;;;;;10.83;3.27;;;;;;;;;;4947236;28;20326;-78
2022/08/30 05:20:28;;;;;;;17.93;3.10;;;;;;;;;;4945865;28;20265;-78
2022/08/30 05:22:55;;;;;;;10.10;3.10;;;;;;;;;;4946018;28;20556;-77
2022/08/30 05:25:25;;;;;;;9.27;2.93;;;;;;;;;;4950178;28;20206;-77
2022/08/30 05:27:55;;;;;;;12.13;2.97;;;;;;;;;;4946347;28;20214;-76
2022/08/30 05:30:23;;;;;;;12.57;3.10;;;;;;;;;;4950006;28;20735;-77
2022/08/30 05:32:50;;;;;;;13.93;2.70;;;;;;;;;;4947120;28;20253;-77
2022/08/30 05:35:18;;;;;;;13.37;3.17;;;;;;;;;;4948511;28;20321;-77
2022/08/30 05:37:45;;;;;;;16.17;3.10;;;;;;;;;;4943492;28;21060;-77
2022/08/30 05:40:16;;;;;;;16.97;3.43;;;;;;;;;;4942711;28;20204;-77
2022/08/30 05:42:45;;;;;;;16.23;3.43;;;;;;;;;;4943301;28;20210;-77
2022/08/30 05:45:13;;;;;;;17.23;3.00;;;;;;;;;;4947623;28;20209;-78
2022/08/30 05:47:40;;;;;;;12.63;2.73;;;;;;;;;;4945162;28;20321;-77
2022/08/30 05:50:08;;;;;;;11.50;2.97;;;;;;;;;;4948435;28;20205;-77
2022/08/30 05:52:35;;;;;;;11.80;3.07;;;;;;;;;;4946944;28;20207;-78
2022/08/30 05:55:04;;;;;;;5.13;2.80;;;;;;;;;;4944028;28;20226;-77
2022/08/30 05:57:32;;;;;;;7.40;2.87;;;;;;;;;;4945006;28;20356;-77
2022/08/30 06:00:01;;;;;;;16.03;3.20;;;;;;;;;;4947902;29;20198;-78
2022/08/30 06:02:28;;;;;;;14.00;3.00;;;;;;;;;;4950426;28;20234;-77
2022/08/30 06:04:56;;;;;;;7.20;2.70;;;;;;;;;;4949838;28;20205;-77
2022/08/30 06:07:23;;;;;;;8.63;2.90;;;;;;;;;;4951548;28;20693;-78
2022/08/30 06:09:54;;;;;;;8.77;2.70;;;;;;;;;;4946991;28;20571;-78
2022/08/30 06:12:21;;;;;;;9.83;2.90;;;;;;;;;;4946475;29;20262;-78
2022/08/30 06:14:51;;;;;;;10.90;2.50;;;;;;;;;;4947198;28;20225;-77
2022/08/30 06:17:20;;;;;;;13.27;3.80;;;;;;;;;;4944224;28;20876;-77
2022/08/30 06:19:47;;;;;;;11.37;3.03;;;;;;;;;;4945831;28;20222;-77
2022/08/30 06:22:14;;;;;;;11.87;2.60;;;;;;;;;;4944423;28;20297;-77
2022/08/30 06:24:44;;;;;;;13.77;3.20;;;;;;;;;;4946806;28;20376;-76
2022/08/30 06:27:11;;;;;;;11.30;3.60;;;;;;;;;;4947060;28;20878;-77
2022/08/30 06:29:38;;;;;;;10.40;2.77;;;;;;;;;;4945864;28;20232;-77
2022/08/30 06:32:05;;;;;;;9.87;2.87;;;;;;;;;;4944951;28;20567;-77
2022/08/30 06:34:34;;;;;;;11.77;3.03;;;;;;;;;;4950501;28;20237;-78
2022/08/30 06:37:01;;;;;;;5.83;2.50;;;;;;;;;;4951595;28;20239;-78
2022/08/30 06:39:28;;;;;;;13.80;3.40;;;;;;;;;;4947667;28;20210;-77
2022/08/30 06:41:56;;;;;;;12.10;2.87;;;;;;;;;;4947960;28;20203;-77
2022/08/30 06:44:23;;;;;;;10.13;3.20;;;;;;;;;;4947127;28;20313;-77
2022/08/30 06:46:50;;;;;;;11.77;3.03;;;;;;;;;;4949553;28;20237;-77
2022/08/30 06:49:17;;;;;;;16.73;3.20;;;;;;;;;;4952741;28;20578;-77
2022/08/30 06:51:45;;;;;;;5.20;2.40;;;;;;;;;;4951047;28;20294;-77
2022/08/30 06:54:13;;;;;;;18.73;3.50;;;;;;;;;;4950849;28;20292;-77
2022/08/30 06:56:41;;;;;;;6.70;2.83;;;;;;;;;;4949601;28;20230;-77
2022/08/30 06:59:08;;;;;;;11.90;3.03;;;;;;;;;;4953377;28;20206;-77
2022/08/30 07:01:35;;;;;;;15.10;3.83;;;;;;;;;;4944100;29;20214;-77
2022/08/30 07:04:03;;;;;;;9.87;3.47;;;;;;;;;;4946522;28;20206;-77
2022/08/30 07:06:30;;;;;;;11.67;3.10;;;;;;;;;;4951193;28;20229;-77
2022/08/30 07:08:59;;;;;;;9.13;2.90;;;;;;;;;;4949932;28;20215;-77
2022/08/30 07:11:27;;;;;;;14.47;3.10;;;;;;;;;;4947400;28;20210;-77
2022/08/30 07:13:55;;;;;;;9.17;2.80;;;;;;;;;;4946927;28;20318;-77
2022/08/30 07:16:22;;;;;;;14.83;2.90;;;;;;;;;;4946009;28;20697;-77
2022/08/30 07:18:53;;;;;;;9.83;3.00;;;;;;;;;;4945230;28;20226;-77
2022/08/30 07:21:22;;;;;;;6.50;2.40;;;;;;;;;;4947638;29;20202;-78
2022/08/30 07:23:49;;;;;;;7.87;2.87;;;;;;;;;;4948791;28;20217;-77
2022/08/30 07:26:19;;;;;;;7.10;2.87;;;;;;;;;;4945304;28;20595;-76
2022/08/30 07:28:47;;;;;;;5.83;2.83;;;;;;;;;;4944848;28;20207;-75
2022/08/30 07:31:15;;;;;;;6.13;2.50;;;;;;;;;;4941959;28;20210;-77
2022/08/30 07:33:43;;;;;;;6.53;2.57;;;;;;;;;;4948035;28;20210;-77
2022/08/30 07:36:10;;;;;;;10.20;3.00;;;;;;;;;;4945774;28;20230;-77
2022/08/30 07:38:38;;;;;;;5.67;2.33;;;;;;;;;;4943104;28;20712;-77
2022/08/30 07:41:06;;;;;;;10.57;2.80;;;;;;;;;;4948444;28;20202;-76
2022/08/30 07:43:41;;;;;;;7.93;2.87;;;;;;;;;;4943983;28;20302;-76
2022/08/30 07:46:20;;;;;;;3.63;2.17;;;;;;;;;;4949150;28;20597;-76
2022/08/30 07:48:47;;;;;;;5.93;2.50;;;;;;;;;;4947976;28;20216;-76
2022/08/30 07:51:19;;;;;;;12.97;2.53;;;;;;;;;;4951200;28;20235;-76
2022/08/30 07:53:47;;;;;;;9.90;2.80;;;;;;;;;;4955714;28;20264;-76
2022/08/30 07:56:15;;;;;;;6.03;2.73;;;;;;;;;;4969217;28;20258;-76
2022/08/30 07:58:43;;;;;;;5.33;2.33;;;;;;;;;;4954947;28;20206;-75
2022/08/30 08:01:15;;;;;;;5.77;2.50;;;;;;;;;;4947183;28;20299;-76
2022/08/30 08:03:43;;;;;;;6.40;2.63;;;;;;;;;;4943846;28;20302;-76
2022/08/30 08:06:11;;;;;;;6.20;2.43;;;;;;;;;;4949280;28;20265;-75
2022/08/30 08:08:40;;;;;;;7.17;2.53;;;;;;;;;;4942175;28;20253;-76
2022/08/30 08:11:08;;;;;;;8.60;2.73;;;;;;;;;;4948706;29;20340;-76
2022/08/30 08:13:38;;;;;;;6.97;2.47;;;;;;;;;;4949559;28;20659;-76
2022/08/30 08:16:07;;;;;;;3.80;2.13;;;;;;;;;;4949531;28;20412;-76
2022/08/30 08:18:36;;;;;;;4.90;2.27;;;;;;;;;;4943465;29;20856;-76
2022/08/30 08:21:04;;;;;;;5.87;2.57;;;;;;;;;;4946508;29;20212;-76
2022/08/30 08:23:33;;;;;;;11.30;2.60;;;;;;;;;;4946500;28;20298;-75
2022/08/30 08:26:01;;;;;;;6.97;2.37;;;;;;;;;;4941972;28;20226;-75
2022/08/30 08:28:30;;;;;;;4.37;2.10;;;;;;;;;;4942333;28;20722;-76
2022/08/30 08:30:58;;;;;;;5.50;2.27;;;;;;;;;;4943104;28;20300;-76
2022/08/30 08:33:27;;;;;;;9.70;2.43;;;;;;;;;;4944292;29;20200;-76
2022/08/30 08:35:56;;;;;;;6.87;2.07;;;;;;;;;;4946895;28;20768;-77
2022/08/30 08:38:23;;;;;;;8.40;2.03;;;;;;;;;;4945592;28;20212;-76
2022/08/30 08:40:55;;;;;;;6.33;2.20;;;;;;;;;;4943538;28;20210;-76
2022/08/30 08:43:23;;;;;;;5.50;2.17;;;;;;;;;;4942928;28;20229;-77
2022/08/30 08:45:56;;;;;;;8.90;2.30;;;;;;;;;;4941840;28;20325;-76
2022/08/30 08:48:32;;;;;;;6.23;2.53;;;;;;;;;;4948951;28;20668;-76
2022/08/30 08:53:46;;;;;;;7.13;2.23;;;;;;;;;;4940393;28;20209;-76
2022/08/30 08:56:18;;;;;;;10.57;2.60;;;;;;;;;;4947011;29;20222;-76
2022/08/30 08:58:50;;;;;;;9.17;2.30;;;;;;;;;;4946914;28;20618;-74
2022/08/30 09:01:19;;;;;;;8.00;2.63;;;;;;;;;;4944930;28;20293;-75
2022/08/30 09:03:48;;;;;;;4.67;2.37;;;;;;;;;;4939237;29;20206;-77
2022/08/30 09:06:23;;;;;;;4.80;2.17;;;;;;;;;;4947608;28;20228;-78
2022/08/30 09:08:51;;;;;;;5.40;2.37;;;;;;;;;;4945349;29;20294;-77
2022/08/30 09:11:24;;;;;;;8.90;2.60;;;;;;;;;;4943324;29;20203;-77
2022/08/30 09:13:53;;;;;;;6.07;2.40;;;;;;;;;;4939780;28;20214;-77
2022/08/30 09:16:38;;;;;;;5.23;2.07;;;;;;;;;;4950695;28;20232;-77
2022/08/30 09:19:09;;;;;;;7.67;2.10;;;;;;;;;;4950207;28;20208;-77
2022/08/30 09:21:37;;;;;;;5.67;2.10;;;;;;;;;;4947172;28;20203;-77
2022/08/30 09:24:09;;;;;;;8.67;2.30;;;;;;;;;;4950543;28;20207;-76
2022/08/30 09:26:38;;;;;;;5.43;2.17;;;;;;;;;;4947665;28;20218;-77
2022/08/30 09:29:16;;;;;;;4.67;1.87;;;;;;;;;;4948398;28;20207;-76
2022/08/30 09:31:47;;;;;;;6.07;2.20;;;;;;;;;;4949499;29;20211;-77
2022/08/30 09:34:22;;;;;;;5.90;1.90;;;;;;;;;;4947361;28;20207;-77
2022/08/30 09:36:51;;;;;;;6.57;2.23;;;;;;;;;;4945623;28;20238;-77
2022/08/30 09:39:26;;;;;;;6.33;2.30;;;;;;;;;;4947187;28;20210;-77
2022/08/30 09:41:53;;;;;;;4.17;2.07;;;;;;;;;;4948202;28;20281;-77
2022/08/30 09:44:22;;;;;;;3.70;2.03;;;;;;;;;;4945839;28;20297;-77
2022/08/30 09:46:53;;;;;;;3.03;1.80;;;;;;;;;;4951046;28;20256;-77
2022/08/30 09:49:38;;;;;;;4.83;1.87;;;;;;;;;;4947104;28;20214;-76
2022/08/30 09:52:17;;;;;;;4.60;2.33;;;;;;;;;;4954829;28;20213;-77
2022/08/30 09:54:52;;;;;;;5.60;1.93;;;;;;;;;;4945681;28;20201;-76
2022/08/30 09:57:22;;;;;;;7.83;2.13;;;;;;;;;;4948645;28;20288;-76
2022/08/30 09:59:51;;;;;;;3.43;1.70;;;;;;;;;;4954619;28;20291;-77
2022/08/30 10:02:30;;;;;;;7.03;1.90;;;;;;;;;;4952638;28;20299;-77
2022/08/30 10:05:06;;;;;;;5.10;1.90;;;;;;;;;;4948208;29;20289;-77
2022/08/30 10:07:35;;;;;;;5.60;2.13;;;;;;;;;;4947370;28;20370;-77
2022/08/30 10:10:07;;;;;;;4.47;1.63;;;;;;;;;;4952321;28;20246;-76
2022/08/30 10:12:42;;;;;;;5.77;2.17;;;;;;;;;;4950971;28;20289;-76
2022/08/30 10:15:13;;;;;;;5.23;2.00;;;;;;;;;;4947031;28;20207;-76
2022/08/30 10:17:48;;;;;;;5.77;2.00;;;;;;;;;;4950745;28;20230;-76
2022/08/30 10:20:22;;;;;;;5.97;2.13;;;;;;;;;;4948812;28;20225;-75
2022/08/30 10:22:57;;;;;;;6.10;2.10;;;;;;;;;;4949751;28;20225;-76
2022/08/30 10:25:26;;;;;;;4.77;2.17;;;;;;;;;;4945019;28;20738;-75
2022/08/30 10:27:57;;;;;;;3.83;1.80;;;;;;;;;;4946168;28;20236;-76
2022/08/30 10:30:25;;;;;;;9.63;2.30;;;;;;;;;;4949328;28;20296;-75
2022/08/30 10:32:55;;;;;;;3.80;1.77;;;;;;;;;;4945941;28;20206;-76
2022/08/30 10:35:26;;;;;;;4.70;2.03;;;;;;;;;;4946696;28;20222;-76
2022/08/30 10:37:58;;;;;;;9.43;1.93;;;;;;;;;;4952565;29;20747;-76
2022/08/30 10:43:19;;;;;;;5.80;1.90;;;;;;;;;;4945115;28;20270;-75
2022/08/30 10:45:48;;;;;;;6.37;2.13;;;;;;;;;;4948804;29;20744;-75
2022/08/30 10:48:22;;;;;;;4.77;1.77;;;;;;;;;;4949828;28;20696;-75
2022/08/30 10:50:56;;;;;;;6.97;2.10;;;;;;;;;;4945558;28;20570;-76
2022/08/30 10:53:29;;;;;;;5.77;1.90;;;;;;;;;;4948600;28;20670;-76
2022/08/30 10:56:01;;;;;;;5.87;2.20;;;;;;;;;;4946725;28;20226;-75
2022/08/30 10:58:31;;;;;;;6.23;2.23;;;;;;;;;;4948303;28;20265;-76
2022/08/30 11:01:10;;;;;;;7.63;2.50;;;;;;;;;;4944615;28;20214;-77
2022/08/30 11:03:48;;;;;;;5.07;1.90;;;;;;;;;;4945766;28;20214;-77
2022/08/30 11:06:22;;;;;;;5.40;2.10;;;;;;;;;;4949089;28;20225;-76
2022/08/30 11:09:00;;;;;;;4.40;2.00;;;;;;;;;;4945735;28;20206;-76
2022/08/30 11:11:33;;;;;;;3.03;1.70;;;;;;;;;;4943138;28;20202;-77
2022/08/30 11:14:06;;;;;;;3.30;1.83;;;;;;;;;;4953597;28;20211;-77
2022/08/30 11:16:35;;;;;;;5.23;2.03;;;;;;;;;;4949519;28;20246;-76
2022/08/30 11:19:04;;;;;;;4.63;2.20;;;;;;;;;;4945168;28;21638;-77
2022/08/30 11:21:38;;;;;;;4.77;1.60;;;;;;;;;;4940221;28;21615;-77
2022/08/30 11:24:07;;;;;;;5.90;2.27;;;;;;;;;;4948660;28;20212;-76
2022/08/30 11:26:56;;;;;;;6.83;2.10;;;;;;;;;;4946468;28;20226;-77
2022/08/30 11:29:44;;;;;;;5.83;2.13;;;;;;;;;;4949158;28;20235;-77
2022/08/30 11:32:26;;;;;;;9.63;2.13;;;;;;;;;;4947812;29;20216;-76
2022/08/30 11:34:54;;;;;;;5.80;2.20;;;;;;;;;;4944620;28;20669;-77
2022/08/30 11:37:39;;;;;;;4.50;1.80;;;;;;;;;;4944983;28;20266;-76
2022/08/30 11:40:07;;;;;;;4.90;2.23;;;;;;;;;;4945052;28;20207;-77
2022/08/30 11:42:37;;;;;;;6.47;2.30;;;;;;;;;;4948733;28;20662;-77
2022/08/30 11:45:23;;;;;;;3.60;2.00;;;;;;;;;;4947340;28;20213;-77
2022/08/30 11:47:52;;;;;;;4.53;2.33;;;;;;;;;;4944989;28;20245;-76
2022/08/30 11:50:25;;;;;;;5.93;2.20;;;;;;;;;;4944046;28;20237;-77
2022/08/30 11:53:01;;;;;;;4.73;2.23;;;;;;;;;;4947868;28;20590;-77
2022/08/30 11:55:38;;;;;;;5.27;2.30;;;;;;;;;;4948962;28;20629;-76
2022/08/30 11:58:15;;;;;;;5.00;2.10;;;;;;;;;;4947580;28;20332;-76
2022/08/30 12:00:44;;;;;;;5.27;2.20;;;;;;;;;;4946191;28;20297;-76
2022/08/30 12:03:28;;;;;;;3.93;2.13;;;;;;;;;;4949493;28;20203;-76
2022/08/30 12:05:57;;;;;;;5.47;2.43;;;;;;;;;;4946051;28;20252;-76
2022/08/30 12:08:45;;;;;;;4.47;2.10;;;;;;;;;;4950322;28;20194;-75
2022/08/30 12:11:37;;;;;;;5.70;2.33;;;;;;;;;;4946215;28;20206;-75
2022/08/30 12:14:04;;;;;;;5.53;2.00;;;;;;;;;;4933981;28;20233;-75
2022/08/30 12:18:26;;;;;;;5.17;2.10;;;;;;;;;;4945279;28;20226;-77
2022/08/30 12:19:23;;;;;;;5.47;2.23;;;;;;;;;;4942031;28;20249;-75
2022/08/30 12:21:55;;;;;;;4.50;1.87;;;;;;;;;;4950365;28;20285;-75
2022/08/30 12:24:25;;;;;;;4.87;2.17;;;;;;;;;;4950911;28;20203;-78
2022/08/30 12:26:53;;;;;;;11.17;2.23;;;;;;;;;;4948575;28;20244;-77
2022/08/30 12:29:22;;;;;;;6.03;1.90;;;;;;;;;;4945754;28;20207;-77
2022/08/30 12:31:53;;;;;;;5.53;2.00;;;;;;;;;;4939181;28;20849;-75
2022/08/30 12:37:06;;;;;;;4.20;2.00;;;;;;;;;;4947423;28;20712;-77
2022/08/30 12:39:39;;;;;;;4.90;2.35;;;;;;;;;;4945551;28;20567;-76
2022/08/30 12:42:17;;;;;;;3.63;2.00;;;;;;;;;;4942322;29;20202;-77
2022/08/30 12:44:44;;;;;;;4.80;2.10;;;;;;;;;;4945569;28;20270;-76
2022/08/30 12:47:13;;;;;;;4.40;2.17;;;;;;;;;;4938250;28;20229;-78
2022/08/30 12:49:40;;;;;;;3.27;1.90;;;;;;;;;;4947904;28;20586;-78
2022/08/30 12:52:18;;;;;;;5.50;2.50;;;;;;;;;;4947300;28;20305;-77
2022/08/30 12:54:49;;;;;;;3.50;1.93;;;;;;;;;;4947542;28;20220;-77
2022/08/30 12:57:31;;;;;;;4.27;1.87;;;;;;;;;;4947852;28;20691;-77
2022/08/30 13:00:04;;;;;;;6.43;2.30;;;;;;;;;;4941275;28;20303;-75
2022/08/30 13:02:43;;;;;;;6.07;2.00;;;;;;;;;;4956767;29;20269;-76
2022/08/30 13:05:25;;;;;;;5.57;1.97;;;;;;;;;;4952710;29;20245;-77
2022/08/30 13:07:53;;;;;;;3.93;2.17;;;;;;;;;;4952150;28;20241;-76
2022/08/30 13:10:22;;;;;;;5.83;2.37;;;;;;;;;;4954158;28;20210;-76
2022/08/30 13:13:00;;;;;;;4.40;1.97;;;;;;;;;;4951097;29;20606;-76
2022/08/30 13:15:32;;;;;;;4.63;2.40;;;;;;;;;;4951481;28;20662;-77
2022/08/30 13:18:13;;;;;;;4.60;2.40;;;;;;;;;;4956009;28;20229;-77
2022/08/30 13:20:43;;;;;;;4.50;2.37;;;;;;;;;;4969596;29;20252;-79
2022/08/30 13:23:11;;;;;;;8.37;2.30;;;;;;;;;;4968042;28;20199;-78
2022/08/30 13:25:41;;;;;;;4.37;2.17;;;;;;;;;;4952556;28;20406;-77
2022/08/30 13:28:08;;;;;;;7.60;2.33;;;;;;;;;;4954784;28;20222;-76
2022/08/30 13:30:36;;;;;;;9.37;2.20;;;;;;;;;;4949588;28;20230;-76
2022/08/30 13:33:05;;;;;;;6.57;2.30;;;;;;;;;;4955208;28;20234;-78
2022/08/30 13:35:34;;;;;;;5.83;2.30;;;;;;;;;;4951304;28;20206;-77
2022/08/30 13:38:02;;;;;;;4.10;2.10;;;;;;;;;;4955497;28;20222;-78
2022/08/30 13:40:30;;;;;;;6.07;2.37;;;;;;;;;;4955117;28;20705;-77
2022/08/30 13:42:58;;;;;;;5.07;2.30;;;;;;;;;;4953570;28;20214;-78
2022/08/30 13:45:25;;;;;;;6.07;2.40;;;;;;;;;;4946436;28;20302;-77
2022/08/30 13:47:54;;;;;;;8.67;2.80;;;;;;;;;;4954541;28;20222;-77
2022/08/30 13:50:24;;;;;;;6.60;2.50;;;;;;;;;;4950763;28;20693;-78
2022/08/30 13:52:52;;;;;;;3.90;2.43;;;;;;;;;;4950311;28;20204;-77
2022/08/30 13:55:19;;;;;;;4.63;2.10;;;;;;;;;;4954249;28;20205;-76
2022/08/30 13:57:46;;;;;;;3.00;2.10;;;;;;;;;;4956100;28;20673;-79
2022/08/30 14:00:17;;;;;;;7.03;2.50;;;;;;;;;;4950743;29;20297;-78
2022/08/30 14:02:44;;;;;;;5.97;2.10;;;;;;;;;;4954819;28;20492;-77
2022/08/30 14:05:12;;;;;;;5.30;2.33;;;;;;;;;;4955598;28;20293;-79
2022/08/30 14:07:39;;;;;;;3.53;2.37;;;;;;;;;;4948562;28;20241;-77
2022/08/30 14:10:08;;;;;;;3.07;2.07;;;;;;;;;;4952680;28;20202;-78
2022/08/30 14:12:35;;;;;;;5.03;2.33;;;;;;;;;;4955467;28;20784;-79
2022/08/30 14:15:03;;;;;;;8.87;2.70;;;;;;;;;;4953120;28;20237;-78
2022/08/30 14:17:34;;;;;;;5.07;2.23;;;;;;;;;;4950801;28;20229;-77
2022/08/30 14:20:01;;;;;;;7.90;2.70;;;;;;;;;;4951343;29;20242;-77
2022/08/30 14:22:30;;;;;;;6.00;2.47;;;;;;;;;;4952580;28;20241;-77
2022/08/30 14:25:01;;;;;;;3.63;2.03;;;;;;;;;;4938568;28;20206;-78
2022/08/30 14:27:28;;;;;;;7.07;2.50;;;;;;;;;;4945187;28;20215;-77
2022/08/30 14:29:55;;;;;;;6.20;2.27;;;;;;;;;;4944652;28;20206;-77
2022/08/30 14:32:22;;;;;;;6.67;2.17;;;;;;;;;;4953021;28;20592;-77
2022/08/30 14:34:51;;;;;;;6.73;2.87;;;;;;;;;;4953723;28;20230;-77
2022/08/30 14:37:20;;;;;;;4.80;2.37;;;;;;;;;;4952378;28;20314;-75
2022/08/30 14:39:47;;;;;;;3.40;2.13;;;;;;;;;;4953757;28;20211;-77
2022/08/30 14:42:14;;;;;;;3.93;2.50;;;;;;;;;;4954818;28;20202;-77
2022/08/30 14:44:41;;;;;;;4.97;2.37;;;;;;;;;;4949870;28;20210;-77
2022/08/30 14:47:08;;;;;;;7.03;2.70;;;;;;;;;;4946578;28;20629;-76
2022/08/30 14:49:36;;;;;;;5.97;2.57;;;;;;;;;;4953239;28;20213;-77
2022/08/30 14:52:04;;;;;;;6.50;2.83;;;;;;;;;;4956495;28;20301;-77
2022/08/30 14:54:33;;;;;;;4.80;2.53;;;;;;;;;;4950541;28;20203;-78
2022/08/30 14:57:09;;;;;;;4.43;2.47;;;;;;;;;;4946460;28;20615;-78
2022/08/30 14:59:38;;;;;;;4.57;2.53;;;;;;;;;;4950149;28;20202;-77
2022/08/30 15:02:08;;;;;;;7.70;2.70;;;;;;;;;;4948099;28;20298;-78
2022/08/30 15:04:36;;;;;;;5.43;2.40;;;;;;;;;;4950593;28;20770;-76